Time,TemperatureF,DewpointF,PressureIn,WindDirection,WindDirectionDegrees,WindSpeedMPH,WindSpeedGustMPH,Humidity,HourlyPrecipIn,Conditions,Clouds,dailyrainin,SoftwareType,DateUTC
2013-04-14 00:01:00,49.0,22.0,29.47,South,180,2.0,-999.0,34,-99.99,,,-99.99,,2013-04-14 06:01:00,
2013-04-14 00:11:00,49.0,22.0,29.47,South,180,2.0,-999.0,34,-99.99,,,-99.99,,2013-04-14 06:11:00,
2013-04-14 00:21:00,49.0,22.0,29.47,South,180,2.0,-999.0,34,-99.99,,,-99.99,,2013-04-14 06:21:00,
2013-04-14 00:32:00,48.0,23.0,29.46,West,276,9.0,-999.0,37,-99.99,,,-99.99,,2013-04-14 06:32:00,
2013-04-14 00:42:00,48.0,23.0,29.46,West,276,9.0,-999.0,37,-99.99,,,-99.99,,2013-04-14 06:42:00,
2013-04-14 00:52:00,48.0,23.0,29.47,North,349,2.0,-999.0,37,-99.99,,,-99.99,,2013-04-14 06:52:00,
2013-04-14 01:02:00,48.0,23.0,29.47,WSW,252,9.0,-999.0,37,-99.99,,,-99.99,,2013-04-14 07:02:00,
2013-04-14 01:11:00,48.0,23.0,29.47,WSW,252,9.0,-999.0,37,-99.99,,,-99.99,,2013-04-14 07:11:00,
2013-04-14 01:22:00,48.0,23.0,29.45,NNE,15,9.0,-999.0,37,-99.99,,,-99.99,,2013-04-14 07:22:00,
2013-04-14 01:32:00,47.0,23.0,29.46,West,279,2.0,-999.0,38,-99.99,,,-99.99,,2013-04-14 07:32:00,
2013-04-14 01:42:00,47.0,23.0,29.46,West,279,2.0,-999.0,38,-99.99,,,-99.99,,2013-04-14 07:42:00,
2013-04-14 01:52:00,48.0,22.0,29.44,NNE,27,3.0,-999.0,36,-99.99,,,-99.99,,2013-04-14 07:52:00,
2013-04-14 02:01:00,48.0,22.0,29.44,SSE,161,3.0,-999.0,36,-99.99,,,-99.99,,2013-04-14 08:01:00,
2013-04-14 02:11:00,48.0,22.0,29.44,SSE,161,3.0,-999.0,36,-99.99,,,-99.99,,2013-04-14 08:11:00,
2013-04-14 02:22:00,47.0,21.0,29.44,NW,326,6.0,-999.0,36,-99.99,,,-99.99,,2013-04-14 08:22:00,
2013-04-14 02:31:00,47.0,21.0,29.43,SE,128,5.0,-999.0,36,-99.99,,,-99.99,,2013-04-14 08:31:00,
2013-04-14 02:42:00,47.0,21.0,29.43,SE,128,5.0,-999.0,36,-99.99,,,-99.99,,2013-04-14 08:42:00,
2013-04-14 02:52:00,47.0,22.0,29.42,South,177,4.0,-999.0,37,-99.99,,,-99.99,,2013-04-14 08:52:00,
2013-04-14 03:02:00,46.0,21.0,29.41,South,185,6.0,-999.0,37,-99.99,,,-99.99,,2013-04-14 09:02:00,
2013-04-14 03:11:00,46.0,21.0,29.41,South,185,6.0,-999.0,37,-99.99,,,-99.99,,2013-04-14 09:11:00,
2013-04-14 03:22:00,46.0,21.0,29.40,South,186,5.0,-999.0,37,-99.99,,,-99.99,,2013-04-14 09:22:00,
2013-04-14 03:32:00,46.0,22.0,29.40,SSE,165,5.0,-999.0,38,-99.99,,,-99.99,,2013-04-14 09:32:00,
2013-04-14 03:42:00,46.0,22.0,29.40,SSE,165,5.0,-999.0,38,-99.99,,,-99.99,,2013-04-14 09:42:00,
2013-04-14 03:53:00,46.0,22.0,29.39,SSE,168,4.0,-999.0,38,-99.99,,,-99.99,,2013-04-14 09:53:00,
2013-04-14 04:02:00,46.0,22.0,29.39,ESE,121,5.0,-999.0,38,-99.99,,,-99.99,,2013-04-14 10:02:00,
2013-04-14 04:12:00,46.0,22.0,29.39,ESE,121,5.0,-999.0,38,-99.99,,,-99.99,,2013-04-14 10:12:00,
2013-04-14 04:22:00,45.0,21.0,29.39,South,171,5.0,-999.0,38,-99.99,,,-99.99,,2013-04-14 10:22:00,
2013-04-14 04:32:00,45.0,22.0,29.38,SSW,193,5.0,-999.0,39,-99.99,,,-99.99,,2013-04-14 10:32:00,
2013-04-14 04:42:00,45.0,22.0,29.38,SSW,193,5.0,-999.0,39,-99.99,,,-99.99,,2013-04-14 10:42:00,
2013-04-14 04:52:00,45.0,22.0,29.38,South,171,3.0,-999.0,40,-99.99,,,-99.99,,2013-04-14 10:52:00,
2013-04-14 05:02:00,45.0,23.0,29.37,ENE,74,4.0,-999.0,41,-99.99,,,-99.99,,2013-04-14 11:02:00,
2013-04-14 05:12:00,45.0,23.0,29.37,ENE,74,4.0,-999.0,41,-99.99,,,-99.99,,2013-04-14 11:12:00,
2013-04-14 05:22:00,44.0,23.0,29.37,South,175,4.0,-999.0,43,-99.99,,,-99.99,,2013-04-14 11:22:00,
2013-04-14 05:32:00,44.0,23.0,29.36,SSE,155,5.0,-999.0,44,-99.99,,,-99.99,,2013-04-14 11:32:00,
2013-04-14 05:42:00,44.0,23.0,29.36,SSE,155,5.0,-999.0,44,-99.99,,,-99.99,,2013-04-14 11:42:00,
2013-04-14 05:52:00,44.0,25.0,29.36,South,177,4.0,-999.0,46,-99.99,,,-99.99,,2013-04-14 11:52:00,
2013-04-14 06:01:00,43.0,24.0,29.36,East,79,4.0,-999.0,47,-99.99,,,-99.99,,2013-04-14 12:01:00,
2013-04-14 06:12:00,43.0,24.0,29.36,East,79,4.0,-999.0,47,-99.99,,,-99.99,,2013-04-14 12:12:00,
2013-04-14 06:21:00,43.0,25.0,29.36,SSE,165,6.0,-999.0,48,-99.99,,,-99.99,,2013-04-14 12:21:00,
2013-04-14 06:32:00,43.0,26.0,29.35,SSE,164,5.0,-999.0,50,-99.99,,,-99.99,,2013-04-14 12:32:00,
2013-04-14 06:42:00,43.0,26.0,29.35,SSE,164,5.0,-999.0,50,-99.99,,,-99.99,,2013-04-14 12:42:00,
2013-04-14 06:52:00,42.0,26.0,29.36,South,179,2.0,-999.0,52,-99.99,,,-99.99,,2013-04-14 12:52:00,
2013-04-14 07:01:00,42.0,29.0,29.37,NNW,332,2.0,-999.0,59,-99.99,,,-99.99,,2013-04-14 13:01:00,
2013-04-14 07:12:00,42.0,29.0,29.37,NNW,332,2.0,-999.0,59,-99.99,,,-99.99,,2013-04-14 13:12:00,
2013-04-14 07:22:00,40.0,29.0,29.37,SSW,213,5.0,-999.0,65,-99.99,,,-99.99,,2013-04-14 13:22:00,
2013-04-14 07:32:00,38.0,30.0,29.39,North,9,4.0,-999.0,74,-99.99,,,-99.99,,2013-04-14 13:32:00,
2013-04-14 07:42:00,38.0,30.0,29.39,North,9,4.0,-999.0,74,-99.99,,,-99.99,,2013-04-14 13:42:00,
2013-04-14 07:52:00,37.0,31.0,29.39,ESE,117,2.0,-999.0,78,-99.99,,,-99.99,,2013-04-14 13:52:00,
2013-04-14 08:02:00,37.0,31.0,29.40,West,273,1.0,-999.0,79,-99.99,,,-99.99,,2013-04-14 14:02:00,
2013-04-14 08:11:00,37.0,31.0,29.40,West,273,1.0,-999.0,79,-99.99,,,-99.99,,2013-04-14 14:11:00,
2013-04-14 08:22:00,36.0,30.0,29.40,South,181,0.0,-999.0,80,-99.99,,,-99.99,,2013-04-14 14:22:00,
2013-04-14 08:32:00,36.0,29.0,29.40,NNW,340,4.0,-999.0,77,-99.99,,,-99.99,,2013-04-14 14:32:00,
2013-04-14 08:42:00,36.0,29.0,29.40,NNW,340,4.0,-999.0,77,-99.99,,,-99.99,,2013-04-14 14:42:00,
2013-04-14 08:52:00,36.0,29.0,29.40,WSW,256,5.0,-999.0,74,-99.99,,,-99.99,,2013-04-14 14:52:00,
2013-04-14 09:02:00,35.0,29.0,29.41,WNW,298,4.0,-999.0,77,-99.99,,,-99.99,,2013-04-14 15:02:00,
2013-04-14 09:12:00,35.0,29.0,29.41,WNW,298,4.0,-999.0,77,-99.99,,,-99.99,,2013-04-14 15:12:00,
2013-04-14 09:22:00,35.0,29.0,29.43,WSW,255,3.0,-999.0,78,-99.99,,,-99.99,,2013-04-14 15:22:00,
2013-04-14 09:33:00,35.0,29.0,29.42,SSE,159,1.0,-999.0,79,-99.99,,,-99.99,,2013-04-14 15:33:00,
2013-04-14 09:42:00,35.0,29.0,29.42,SSE,159,1.0,-999.0,79,-99.99,,,-99.99,,2013-04-14 15:42:00,
2013-04-14 09:53:00,36.0,29.0,29.42,NNW,331,2.0,-999.0,74,-99.99,,,-99.99,,2013-04-14 15:53:00,
2013-04-14 10:03:00,37.0,28.0,29.42,West,259,3.0,-999.0,70,-99.99,,,-99.99,,2013-04-14 16:03:00,
2013-04-14 10:12:00,37.0,28.0,29.42,West,259,3.0,-999.0,70,-99.99,,,-99.99,,2013-04-14 16:12:00,
2013-04-14 10:22:00,37.0,29.0,29.43,WSW,241,3.0,-999.0,73,-99.99,,,-99.99,,2013-04-14 16:22:00,
2013-04-14 10:32:00,38.0,31.0,29.43,West,265,2.0,-999.0,75,-99.99,,,-99.99,,2013-04-14 16:32:00,
2013-04-14 10:42:00,38.0,31.0,29.43,West,265,2.0,-999.0,75,-99.99,,,-99.99,,2013-04-14 16:42:00,
2013-04-14 10:53:00,38.0,29.0,29.44,WNW,285,5.0,-999.0,71,-99.99,,,-99.99,,2013-04-14 16:53:00,
2013-04-14 11:01:00,40.0,28.0,29.45,West,265,6.0,-999.0,62,-99.99,,,-99.99,,2013-04-14 17:01:00,
2013-04-14 11:12:00,40.0,28.0,29.45,West,265,6.0,-999.0,62,-99.99,,,-99.99,,2013-04-14 17:12:00,
2013-04-14 11:22:00,40.0,28.0,29.46,WNW,297,8.0,-999.0,62,-99.99,,,-99.99,,2013-04-14 17:22:00,
2013-04-14 11:32:00,40.0,28.0,29.47,West,275,8.0,-999.0,61,-99.99,,,-99.99,,2013-04-14 17:32:00,
2013-04-14 11:42:00,40.0,28.0,29.47,West,275,8.0,-999.0,61,-99.99,,,-99.99,,2013-04-14 17:42:00,
2013-04-14 11:53:00,41.0,27.0,29.47,West,260,6.0,-999.0,57,-99.99,,,-99.99,,2013-04-14 17:53:00,
2013-04-14 12:02:00,42.0,27.0,29.47,WNW,290,8.0,-999.0,56,-99.99,,,-99.99,,2013-04-14 18:02:00,
2013-04-14 12:12:00,42.0,27.0,29.47,WNW,290,8.0,-999.0,56,-99.99,,,-99.99,,2013-04-14 18:12:00,
2013-04-14 12:21:00,43.0,27.0,29.47,West,267,8.0,-999.0,52,-99.99,,,-99.99,,2013-04-14 18:21:00,
2013-04-14 12:32:00,44.0,27.0,29.48,WNW,283,6.0,-999.0,50,-99.99,,,-99.99,,2013-04-14 18:32:00,
2013-04-14 12:42:00,44.0,27.0,29.48,WNW,283,6.0,-999.0,50,-99.99,,,-99.99,,2013-04-14 18:42:00,
2013-04-14 12:53:00,43.0,24.0,29.47,NW,317,6.0,-999.0,47,-99.99,,,-99.99,,2013-04-14 18:53:00,
2013-04-14 13:02:00,43.0,25.0,29.47,WNW,296,6.0,-999.0,48,-99.99,,,-99.99,,2013-04-14 19:02:00,
2013-04-14 13:11:00,43.0,25.0,29.47,WNW,296,6.0,-999.0,48,-99.99,,,-99.99,,2013-04-14 19:11:00,
2013-04-14 13:22:00,43.0,25.0,29.48,NW,320,3.0,-999.0,49,-99.99,,,-99.99,,2013-04-14 19:22:00,
2013-04-14 13:32:00,43.0,24.0,29.47,NNW,327,4.0,-999.0,46,-99.99,,,-99.99,,2013-04-14 19:32:00,
2013-04-14 13:42:00,43.0,24.0,29.47,NNW,327,4.0,-999.0,46,-99.99,,,-99.99,,2013-04-14 19:42:00,
2013-04-14 13:52:00,44.0,25.0,29.47,NW,315,1.0,-999.0,47,-99.99,,,-99.99,,2013-04-14 19:52:00,
2013-04-14 14:02:00,45.0,24.0,29.48,North,360,5.0,-999.0,44,-99.99,,,-99.99,,2013-04-14 20:02:00,
2013-04-14 14:11:00,45.0,24.0,29.48,North,360,5.0,-999.0,44,-99.99,,,-99.99,,2013-04-14 20:11:00,
2013-04-14 14:22:00,47.0,24.0,29.47,West,275,5.0,-999.0,40,-99.99,,,-99.99,,2013-04-14 20:22:00,
2013-04-14 14:32:00,46.0,22.0,29.47,South,190,6.0,-999.0,39,-99.99,,,-99.99,,2013-04-14 20:32:00,
2013-04-14 14:42:00,46.0,22.0,29.47,South,190,6.0,-999.0,39,-99.99,,,-99.99,,2013-04-14 20:42:00,
2013-04-14 14:52:00,47.0,24.0,29.47,NNE,26,2.0,-999.0,40,-99.99,,,-99.99,,2013-04-14 20:52:00,
2013-04-14 15:02:00,47.0,23.0,29.46,West,276,5.0,-999.0,39,-99.99,,,-99.99,,2013-04-14 21:02:00,
2013-04-14 15:12:00,47.0,23.0,29.46,West,276,5.0,-999.0,39,-99.99,,,-99.99,,2013-04-14 21:12:00,
2013-04-14 15:22:00,49.0,24.0,29.47,WNW,292,6.0,-999.0,37,-99.99,,,-99.99,,2013-04-14 21:22:00,
2013-04-14 15:32:00,49.0,22.0,29.45,WSW,257,6.0,-999.0,34,-99.99,,,-99.99,,2013-04-14 21:32:00,
2013-04-14 15:42:00,49.0,22.0,29.45,WSW,257,6.0,-999.0,34,-99.99,,,-99.99,,2013-04-14 21:42:00,
2013-04-14 15:53:00,50.0,23.0,29.45,NW,309,5.0,-999.0,34,-99.99,,,-99.99,,2013-04-14 21:53:00,
2013-04-14 16:02:00,51.0,23.0,29.44,SW,236,5.0,-999.0,33,-99.99,,,-99.99,,2013-04-14 22:02:00,
2013-04-14 16:12:00,51.0,23.0,29.44,SW,236,5.0,-999.0,33,-99.99,,,-99.99,,2013-04-14 22:12:00,
2013-04-14 16:22:00,49.0,23.0,29.44,NW,311,4.0,-999.0,35,-99.99,,,-99.99,,2013-04-14 22:22:00,
2013-04-14 16:32:00,50.0,21.0,29.44,SSE,165,4.0,-999.0,32,-99.99,,,-99.99,,2013-04-14 22:32:00,
2013-04-14 16:42:00,50.0,21.0,29.44,SSE,165,4.0,-999.0,32,-99.99,,,-99.99,,2013-04-14 22:42:00,
2013-04-14 16:52:00,50.0,21.0,29.44,WNW,292,6.0,-999.0,32,-99.99,,,-99.99,,2013-04-14 22:52:00,
2013-04-14 17:02:00,50.0,21.0,29.44,NW,323,7.0,-999.0,32,-99.99,,,-99.99,,2013-04-14 23:02:00,
2013-04-14 17:12:00,50.0,21.0,29.44,NW,323,7.0,-999.0,32,-99.99,,,-99.99,,2013-04-14 23:12:00,
2013-04-14 17:22:00,50.0,21.0,29.45,WSW,254,6.0,-999.0,32,-99.99,,,-99.99,,2013-04-14 23:22:00,
2013-04-14 17:32:00,51.0,21.0,29.45,NE,40,4.0,-999.0,31,-99.99,,,-99.99,,2013-04-14 23:32:00,
2013-04-14 17:42:00,51.0,21.0,29.45,NE,40,4.0,-999.0,31,-99.99,,,-99.99,,2013-04-14 23:42:00,
2013-04-14 17:52:00,51.0,23.0,29.45,South,181,5.0,-999.0,33,-99.99,,,-99.99,,2013-04-14 23:52:00,
2013-04-14 18:01:00,51.0,22.0,29.45,NNW,346,3.0,-999.0,32,-99.99,,,-99.99,,2013-04-15 00:01:00,
2013-04-14 18:12:00,51.0,22.0,29.45,NNW,346,3.0,-999.0,32,-99.99,,,-99.99,,2013-04-15 00:12:00,
2013-04-14 18:22:00,50.0,21.0,29.45,North,350,2.0,-999.0,32,-99.99,,,-99.99,,2013-04-15 00:22:00,
2013-04-14 18:32:00,51.0,23.0,29.45,WNW,291,4.0,-999.0,33,-99.99,,,-99.99,,2013-04-15 00:32:00,
2013-04-14 18:42:00,50.0,22.0,29.46,NW,306,3.0,-999.0,33,-99.99,,,-99.99,,2013-04-15 00:42:00,
2013-04-14 18:52:00,50.0,22.0,29.46,NW,306,3.0,-999.0,33,-99.99,,,-99.99,,2013-04-15 00:52:00,
2013-04-14 19:02:00,48.0,20.0,29.46,SW,226,3.0,-999.0,33,-99.99,,,-99.99,,2013-04-15 01:02:00,
2013-04-14 19:12:00,48.0,20.0,29.46,SW,226,3.0,-999.0,33,-99.99,,,-99.99,,2013-04-15 01:12:00,
2013-04-14 19:22:00,48.0,22.0,29.46,WSW,248,0.0,-999.0,35,-99.99,,,-99.99,,2013-04-15 01:22:00,
2013-04-14 19:32:00,48.0,22.0,29.46,WSW,248,0.0,-999.0,36,-99.99,,,-99.99,,2013-04-15 01:32:00,
2013-04-14 19:42:00,48.0,22.0,29.46,WSW,248,0.0,-999.0,36,-99.99,,,-99.99,,2013-04-15 01:42:00,
2013-04-14 19:52:00,47.0,22.0,29.46,WSW,248,0.0,-999.0,37,-99.99,,,-99.99,,2013-04-15 01:52:00,
2013-04-14 20:02:00,45.0,24.0,29.46,WSW,248,0.0,-999.0,43,-99.99,,,-99.99,,2013-04-15 02:02:00,
2013-04-14 20:11:00,45.0,24.0,29.46,WSW,248,0.0,-999.0,43,-99.99,,,-99.99,,2013-04-15 02:11:00,
2013-04-14 20:22:00,43.0,23.0,29.46,WSW,248,0.0,-999.0,44,-99.99,,,-99.99,,2013-04-15 02:22:00,
2013-04-14 20:31:00,43.0,24.0,29.46,WSW,248,0.0,-999.0,46,-99.99,,,-99.99,,2013-04-15 02:31:00,
2013-04-14 20:42:00,43.0,24.0,29.46,WSW,248,0.0,-999.0,46,-99.99,,,-99.99,,2013-04-15 02:42:00,
2013-04-14 20:52:00,42.0,22.0,29.46,WSW,248,0.0,-999.0,45,-99.99,,,-99.99,,2013-04-15 02:52:00,
2013-04-14 21:02:00,42.0,23.0,29.46,WSW,248,0.0,-999.0,46,-99.99,,,-99.99,,2013-04-15 03:02:00,
2013-04-14 21:11:00,42.0,23.0,29.46,WSW,248,0.0,-999.0,46,-99.99,,,-99.99,,2013-04-15 03:11:00,
2013-04-14 21:22:00,42.0,22.0,29.47,WSW,248,0.0,-999.0,45,-99.99,,,-99.99,,2013-04-15 03:22:00,
2013-04-14 21:32:00,43.0,24.0,29.47,WSW,248,0.0,-999.0,46,-99.99,,,-99.99,,2013-04-15 03:32:00,
2013-04-14 21:42:00,43.0,24.0,29.47,WSW,248,0.0,-999.0,46,-99.99,,,-99.99,,2013-04-15 03:42:00,
2013-04-14 21:54:00,42.0,22.0,29.48,WSW,248,0.0,-999.0,45,-99.99,,,-99.99,,2013-04-15 03:54:00,
2013-04-14 22:02:00,44.0,24.0,29.48,WSW,248,0.0,-999.0,45,-99.99,,,-99.99,,2013-04-15 04:02:00,
2013-04-14 22:12:00,44.0,24.0,29.48,WSW,248,0.0,-999.0,45,-99.99,,,-99.99,,2013-04-15 04:12:00,
2013-04-14 22:22:00,44.0,24.0,29.48,WSW,248,0.0,-999.0,45,-99.99,,,-99.99,,2013-04-15 04:22:00,
2013-04-14 22:32:00,42.0,24.0,29.48,WSW,248,0.0,-999.0,48,-99.99,,,-99.99,,2013-04-15 04:32:00,
2013-04-14 22:42:00,42.0,24.0,29.48,WSW,248,0.0,-999.0,48,-99.99,,,-99.99,,2013-04-15 04:42:00,
2013-04-14 22:52:00,42.0,25.0,29.49,WSW,248,0.0,-999.0,50,-99.99,,,-99.99,,2013-04-15 04:52:00,
2013-04-14 23:02:00,42.0,22.0,29.48,WSW,248,0.0,-999.0,45,-99.99,,,-99.99,,2013-04-15 05:02:00,
2013-04-14 23:12:00,42.0,22.0,29.48,WSW,248,0.0,-999.0,45,-99.99,,,-99.99,,2013-04-15 05:12:00,
2013-04-14 23:22:00,42.0,24.0,29.47,WSW,248,0.0,-999.0,49,-99.99,,,-99.99,,2013-04-15 05:22:00,
2013-04-14 23:32:00,42.0,23.0,29.47,WSW,248,0.0,-999.0,47,-99.99,,,-99.99,,2013-04-15 05:32:00,
2013-04-14 23:42:00,42.0,23.0,29.47,WSW,248,0.0,-999.0,47,-99.99,,,-99.99,,2013-04-15 05:42:00,
2013-04-14 23:52:00,42.0,27.0,29.47,WSW,248,0.0,-999.0,54,-99.99,,,-99.99,,2013-04-15 05:52:00,